Time;durP1;ratioP1;P1;durP2;ratioP2;P2;SDS_P1;SDS_P2;PMS_P1;PMS_P2;Temp;Humidity;BMP_temperature;BMP_pressure;BME280_temperature;BME280_humidity;BME280_pressure;Samples;Min_cycle;Max_cycle;Signal;HPM_P1;HPM_P2
2023/09/19 00:01:33;;;;;;;9.93;1.50;;;12.40;99.90;;;;;;5158859;27;20042;-22
2023/09/19 00:04:00;;;;;;;13.48;2.40;;;12.40;99.90;;;;;;5158757;27;20042;-22
2023/09/19 00:06:31;;;;;;;10.75;1.50;;;12.40;99.90;;;;;;5159033;27;20043;-22
2023/09/19 00:08:59;;;;;;;10.68;2.03;;;12.40;99.90;;;;;;5159340;27;20443;-22
2023/09/19 00:11:26;;;;;;;14.48;2.10;;;12.40;99.90;;;;;;5158618;27;20503;-22
2023/09/19 00:13:53;;;;;;;10.73;2.05;;;12.50;99.90;;;;;;5158587;27;20072;-22
2023/09/19 00:16:22;;;;;;;10.10;1.48;;;12.50;99.90;;;;;;5158473;27;20046;-22
2023/09/19 00:18:48;;;;;;;7.00;1.45;;;12.60;99.90;;;;;;5157340;27;20095;-22
2023/09/19 00:21:15;;;;;;;11.32;2.03;;;12.70;99.90;;;;;;5158465;27;20055;-22
2023/09/19 00:23:41;;;;;;;18.08;2.47;;;12.80;99.90;;;;;;5158419;27;20049;-22
2023/09/19 00:26:07;;;;;;;7.15;1.70;;;12.80;99.90;;;;;;5158453;27;20050;-22
2023/09/19 00:28:33;;;;;;;13.63;1.80;;;12.90;99.90;;;;;;5157947;27;20039;-21
2023/09/19 00:31:01;;;;;;;11.57;1.95;;;12.90;99.90;;;;;;5140051;27;20047;-22
2023/09/19 00:33:29;;;;;;;9.02;2.03;;;13.00;99.90;;;;;;5158288;27;20499;-22
2023/09/19 00:35:57;;;;;;;11.77;2.03;;;13.00;99.90;;;;;;5158091;27;20547;-22
2023/09/19 00:38:26;;;;;;;11.45;2.15;;;13.00;99.90;;;;;;5158460;27;20381;-22
2023/09/19 00:40:53;;;;;;;10.75;2.63;;;12.90;99.90;;;;;;5158107;27;20060;-22
2023/09/19 00:43:20;;;;;;;9.77;1.70;;;12.90;99.90;;;;;;5158905;27;20043;-22
2023/09/19 00:45:48;;;;;;;10.98;2.25;;;12.90;99.90;;;;;;5158006;27;20047;-22
2023/09/19 00:48:16;;;;;;;12.10;1.77;;;12.90;99.90;;;;;;5157651;27;20046;-22
2023/09/19 00:50:43;;;;;;;13.73;2.63;;;12.90;99.90;;;;;;5156160;27;20047;-22
2023/09/19 00:53:13;;;;;;;8.95;2.10;;;13.10;99.90;;;;;;5158398;27;20045;-22
2023/09/19 00:55:42;;;;;;;12.65;1.73;;;13.10;99.90;;;;;;5157569;27;20487;-22
2023/09/19 00:58:10;;;;;;;8.07;1.80;;;13.10;99.90;;;;;;5157735;27;20560;-22
2023/09/19 01:00:36;;;;;;;7.38;1.88;;;13.10;99.90;;;;;;5157715;27;20038;-22
2023/09/19 01:03:02;;;;;;;13.65;2.75;;;12.90;99.90;;;;;;5157698;27;20050;-22
2023/09/19 01:05:29;;;;;;;13.38;2.00;;;12.80;99.90;;;;;;5157911;27;20046;-22
2023/09/19 01:07:56;;;;;;;7.15;1.70;;;12.70;99.90;;;;;;5156973;27;20051;-22
2023/09/19 01:10:22;;;;;;;9.48;2.42;;;12.60;99.90;;;;;;5158466;27;20051;-21
2023/09/19 01:13:06;;;;;;;9.65;1.58;;;12.50;99.90;;;;;;5157406;27;20087;-21
2023/09/19 01:15:40;;;;;;;6.95;2.65;;;12.40;99.90;;;;;;5157303;27;20051;-22
2023/09/19 01:18:12;;;;;;;6.95;1.70;;;12.30;99.90;;;;;;5157342;27;20095;-22
2023/09/19 01:20:47;;;;;;;12.88;1.77;;;12.30;99.90;;;;;;5156073;27;20095;-22
2023/09/19 01:23:27;;;;;;;10.55;2.67;;;12.20;99.90;;;;;;5157585;27;20039;-22
2023/09/19 01:26:08;;;;;;;6.88;1.70;;;12.20;99.90;;;;;;5158116;27;20085;-22
2023/09/19 01:28:57;;;;;;;12.38;2.22;;;12.10;99.90;;;;;;5156185;27;20082;-21
2023/09/19 01:31:24;;;;;;;10.50;3.10;;;12.10;99.90;;;;;;5156941;27;20404;-22
2023/09/19 01:34:03;;;;;;;8.80;3.00;;;12.00;99.90;;;;;;5156093;27;20099;-22
2023/09/19 01:36:35;;;;;;;10.25;2.95;;;11.90;99.90;;;;;;5156953;27;20472;-22
2023/09/19 01:39:10;;;;;;;10.15;1.77;;;11.90;99.90;;;;;;5157257;27;20038;-22
2023/09/19 01:42:04;;;;;;;10.98;3.90;;;11.90;99.90;;;;;;5156916;27;20095;-22
2023/09/19 01:44:48;;;;;;;10.25;1.60;;;11.90;99.90;;;;;;5157150;27;20038;-22
2023/09/19 01:47:26;;;;;;;;;;;11.80;99.90;;;;;;5157797;27;20057;-22
2023/09/19 01:50:36;;;;;;;7.65;1.90;;;11.80;99.90;;;;;;5156923;27;20026;-22
2023/09/19 01:53:25;;;;;;;7.55;2.00;;;11.80;99.90;;;;;;5155360;27;20042;-22
2023/09/19 01:55:52;;;;;;;7.93;1.60;;;11.80;99.90;;;;;;5156873;27;20046;-21
2023/09/19 01:58:24;;;;;;;8.45;2.00;;;11.80;99.90;;;;;;5156542;27;20051;-21
2023/09/19 02:00:53;;;;;;;7.57;1.50;;;11.90;99.90;;;;;;5157235;27;20046;-22
2023/09/19 02:03:22;;;;;;;11.88;2.30;;;12.00;99.90;;;;;;5156170;27;20039;-22
2023/09/19 02:05:53;;;;;;;7.55;1.40;;;12.00;99.90;;;;;;5156403;27;20042;-21
2023/09/19 02:08:19;;;;;;;9.07;1.48;;;12.00;99.90;;;;;;5156556;27;20055;-22
2023/09/19 02:10:48;;;;;;;6.05;1.27;;;12.00;99.90;;;;;;5157238;27;20039;-22
2023/09/19 02:13:19;;;;;;;12.77;2.25;;;12.00;99.90;;;;;;5156250;27;20097;-22
2023/09/19 02:15:45;;;;;;;9.65;1.77;;;12.00;99.90;;;;;;5156155;27;20058;-22
2023/09/19 02:18:11;;;;;;;5.35;1.17;;;12.10;99.90;;;;;;5154755;27;20516;-21
2023/09/19 02:20:38;;;;;;;9.75;1.85;;;12.10;99.90;;;;;;5155117;27;20054;-22
2023/09/19 02:23:04;;;;;;;9.20;1.42;;;12.10;99.90;;;;;;5156058;27;20049;-21
2023/09/19 02:25:30;;;;;;;6.65;1.65;;;12.10;99.90;;;;;;5156098;27;20173;-22
2023/09/19 02:27:58;;;;;;;6.90;1.77;;;12.10;99.90;;;;;;5155978;27;20043;-22
2023/09/19 02:30:25;;;;;;;8.90;1.60;;;12.00;99.90;;;;;;5155954;27;20057;-21
2023/09/19 02:32:51;;;;;;;9.13;1.90;;;12.00;99.90;;;;;;5155948;27;20046;-21
2023/09/19 02:35:19;;;;;;;8.63;1.67;;;12.00;99.90;;;;;;5155861;27;20087;-21
2023/09/19 02:37:45;;;;;;;10.07;1.50;;;11.90;99.90;;;;;;5156565;27;20047;-22
2023/09/19 02:40:25;;;;;;;9.23;1.77;;;11.90;99.90;;;;;;5156148;27;20046;-21
2023/09/19 02:42:54;;;;;;;11.40;2.65;;;11.80;99.90;;;;;;5154778;27;20053;-21
2023/09/19 02:45:20;;;;;;;7.38;1.60;;;11.80;99.90;;;;;;5155746;27;20050;-22
2023/09/19 02:47:47;;;;;;;9.30;1.40;;;11.90;99.90;;;;;;5155777;27;20046;-22
2023/09/19 02:50:15;;;;;;;7.68;1.20;;;11.90;99.90;;;;;;5155575;27;20047;-21
2023/09/19 02:52:47;;;;;;;8.23;1.23;;;11.90;99.90;;;;;;5155286;27;20484;-22
2023/09/19 02:55:14;;;;;;;10.30;1.80;;;12.00;99.90;;;;;;5156525;27;20455;-21
2023/09/19 02:57:42;;;;;;;9.48;1.85;;;12.00;99.90;;;;;;5155493;27;20162;-21
2023/09/19 03:00:12;;;;;;;7.72;1.20;;;12.00;99.90;;;;;;5155505;27;20051;-22
2023/09/19 03:02:39;;;;;;;8.20;1.58;;;12.20;99.90;;;;;;5155492;27;20042;-21
2023/09/19 03:05:11;;;;;;;9.23;1.40;;;12.30;99.90;;;;;;5155456;27;20130;-22
2023/09/19 03:07:38;;;;;;;7.40;1.20;;;12.40;99.90;;;;;;5155511;27;20046;-22
2023/09/19 03:10:06;;;;;;;8.57;1.20;;;12.40;99.90;;;;;;5154012;27;20057;-22
2023/09/19 03:12:31;;;;;;;10.55;1.52;;;12.40;99.90;;;;;;5155331;27;20078;-22
2023/09/19 03:14:57;;;;;;;11.60;1.95;;;12.40;99.90;;;;;;5137401;27;20412;-22
2023/09/19 03:17:25;;;;;;;9.43;1.27;;;12.40;99.90;;;;;;5154942;27;20519;-22
2023/09/19 03:19:50;;;;;;;5.90;1.80;;;12.40;99.90;;;;;;5155872;27;20038;-21
2023/09/19 03:22:17;;;;;;;11.45;1.80;;;12.40;99.90;;;;;;5155268;27;20052;-22
2023/09/19 03:24:43;;;;;;;7.68;1.25;;;12.40;99.90;;;;;;5154099;27;20038;-22
2023/09/19 03:27:13;;;;;;;8.60;1.35;;;12.30;99.90;;;;;;5155322;27;20043;-22
2023/09/19 03:29:39;;;;;;;9.35;1.75;;;12.20;99.90;;;;;;5154644;27;20050;-22
2023/09/19 03:32:05;;;;;;;12.10;1.95;;;12.10;99.90;;;;;;5154238;27;20522;-22
2023/09/19 03:34:31;;;;;;;8.40;1.85;;;11.90;99.90;;;;;;5154119;27;20046;-22
2023/09/19 03:36:57;;;;;;;7.32;1.60;;;11.80;99.90;;;;;;5155665;27;20049;-22
2023/09/19 03:39:23;;;;;;;8.25;1.45;;;11.60;99.90;;;;;;5155398;27;20115;-22
2023/09/19 03:41:49;;;;;;;9.05;1.30;;;11.40;99.90;;;;;;5155000;27;20050;-22
2023/09/19 03:44:15;;;;;;;14.27;2.25;;;11.20;99.90;;;;;;5153986;27;20087;-22
2023/09/19 03:46:41;;;;;;;6.70;1.63;;;11.10;99.90;;;;;;5154482;27;20039;-22
2023/09/19 03:49:06;;;;;;;8.38;1.38;;;10.90;99.90;;;;;;5154962;27;20058;-21
2023/09/19 03:51:34;;;;;;;7.70;1.23;;;10.80;99.90;;;;;;5120198;27;20118;-22
2023/09/19 03:54:00;;;;;;;6.93;1.80;;;10.70;99.90;;;;;;5155621;27;20058;-22
2023/09/19 03:56:25;;;;;;;6.78;1.60;;;10.60;99.90;;;;;;5154854;27;20043;-22
2023/09/19 03:58:51;;;;;;;9.82;1.77;;;10.60;99.90;;;;;;5154938;27;20388;-22
2023/09/19 04:01:18;;;;;;;10.02;1.50;;;10.70;99.90;;;;;;5156040;27;20039;-22
2023/09/19 04:03:47;;;;;;;6.07;1.48;;;10.70;99.90;;;;;;5136374;27;20049;-22
2023/09/19 04:06:17;;;;;;;7.90;1.63;;;10.70;99.90;;;;;;5154881;27;20050;-22
2023/09/19 04:08:44;;;;;;;11.98;1.70;;;10.80;99.90;;;;;;5155406;27;20058;-21
2023/09/19 04:11:10;;;;;;;11.95;1.75;;;10.90;99.90;;;;;;5155106;27;20137;-22
2023/09/19 04:13:36;;;;;;;10.95;2.30;;;11.00;99.90;;;;;;5155092;27;20134;-22
2023/09/19 04:16:06;;;;;;;8.18;2.00;;;11.10;99.90;;;;;;5155549;27;20034;-21
2023/09/19 04:18:37;;;;;;;9.25;1.48;;;11.20;99.90;;;;;;5154831;27;20087;-22
2023/09/19 04:21:04;;;;;;;14.95;2.40;;;11.40;99.90;;;;;;5154866;27;20050;-22
2023/09/19 04:23:30;;;;;;;8.48;1.83;;;11.40;99.90;;;;;;5154729;27;20047;-22
2023/09/19 04:25:57;;;;;;;6.68;1.85;;;11.40;99.90;;;;;;5158097;27;20087;-22
2023/09/19 04:28:23;;;;;;;11.63;1.73;;;11.30;99.90;;;;;;5158415;27;20078;-22
2023/09/19 04:30:49;;;;;;;9.77;3.28;;;11.30;99.90;;;;;;5159173;27;20050;-22
2023/09/19 04:33:15;;;;;;;5.68;1.75;;;11.30;99.90;;;;;;5158823;27;20388;-22
2023/09/19 04:35:42;;;;;;;6.30;1.30;;;11.30;99.90;;;;;;5158179;27;20039;-22
2023/09/19 04:38:08;;;;;;;8.77;1.42;;;11.30;99.90;;;;;;5158219;27;20039;-22
2023/09/19 04:40:34;;;;;;;10.20;1.50;;;11.30;99.90;;;;;;5157711;27;20138;-22
2023/09/19 04:43:00;;;;;;;9.32;1.50;;;11.30;99.90;;;;;;5158057;27;20047;-22
2023/09/19 04:45:27;;;;;;;9.82;1.80;;;11.40;99.90;;;;;;5158045;27;20161;-22
2023/09/19 04:47:53;;;;;;;8.90;1.55;;;11.30;99.90;;;;;;5158030;27;20043;-22
2023/09/19 04:50:20;;;;;;;7.15;1.55;;;11.30;99.90;;;;;;5158292;27;20460;-22
2023/09/19 04:52:50;;;;;;;14.10;2.45;;;11.40;99.90;;;;;;5157891;27;20050;-22
2023/09/19 04:55:18;;;;;;;8.68;1.63;;;11.50;99.90;;;;;;5157829;27;20484;-22
2023/09/19 04:57:48;;;;;;;6.55;1.55;;;11.50;99.90;;;;;;5158542;27;20399;-22
2023/09/19 05:00:19;;;;;;;11.93;1.80;;;11.60;99.90;;;;;;5140406;27;20046;-22
2023/09/19 05:02:46;;;;;;;6.82;2.08;;;11.60;99.90;;;;;;5157789;27;20047;-22
2023/09/19 05:05:14;;;;;;;14.45;2.47;;;11.60;99.90;;;;;;5157682;27;20071;-22
2023/09/19 05:07:42;;;;;;;8.15;1.58;;;11.70;99.90;;;;;;5156368;27;20416;-22
2023/09/19 05:10:08;;;;;;;7.22;1.70;;;11.80;99.90;;;;;;5157623;27;20449;-22
2023/09/19 05:12:37;;;;;;;8.95;1.77;;;11.80;99.90;;;;;;5157261;27;20445;-22
2023/09/19 05:15:04;;;;;;;14.15;2.10;;;11.90;99.90;;;;;;5157484;27;20130;-22
2023/09/19 05:17:31;;;;;;;8.45;1.55;;;11.90;99.90;;;;;;5157308;27;20038;-22
2023/09/19 05:19:58;;;;;;;13.40;2.28;;;11.90;99.90;;;;;;5157343;27;20038;-23
2023/09/19 05:22:26;;;;;;;7.18;1.40;;;11.90;99.90;;;;;;5158413;27;20142;-22
2023/09/19 05:24:52;;;;;;;8.15;2.40;;;12.00;99.90;;;;;;5157509;27;20468;-22
2023/09/19 05:27:20;;;;;;;11.93;2.08;;;12.00;99.90;;;;;;5157272;27;20471;-22
2023/09/19 05:29:46;;;;;;;11.30;2.20;;;12.00;99.90;;;;;;5156815;27;20381;-22
2023/09/19 05:32:12;;;;;;;8.90;2.60;;;12.10;99.90;;;;;;5156139;27;20043;-22
2023/09/19 05:34:38;;;;;;;8.45;2.20;;;12.10;99.90;;;;;;5156683;27;20098;-22
2023/09/19 05:37:07;;;;;;;6.78;1.25;;;12.10;99.90;;;;;;5156784;27;20082;-22
2023/09/19 05:39:33;;;;;;;14.18;1.48;;;12.10;99.90;;;;;;5157253;27;20388;-23
2023/09/19 05:42:00;;;;;;;7.50;1.42;;;12.20;99.90;;;;;;5156994;27;20116;-22
2023/09/19 05:44:26;;;;;;;11.50;1.83;;;12.30;99.90;;;;;;5156902;27;20046;-23
2023/09/19 05:46:52;;;;;;;7.03;1.88;;;12.30;99.90;;;;;;5157627;27;20046;-22
2023/09/19 05:49:18;;;;;;;10.15;1.85;;;12.30;99.90;;;;;;5157190;27;20491;-23
2023/09/19 05:51:43;;;;;;;12.07;2.80;;;12.40;99.90;;;;;;5156747;27;20049;-23
2023/09/19 05:54:11;;;;;;;13.43;2.50;;;12.40;99.90;;;;;;5155450;27;20038;-22
2023/09/19 05:56:36;;;;;;;16.33;2.08;;;12.50;99.90;;;;;;5156627;27;20069;-23
2023/09/19 05:59:04;;;;;;;11.35;1.70;;;12.50;99.90;;;;;;5156911;27;20519;-23
2023/09/19 06:01:32;;;;;;;15.07;2.25;;;12.60;99.90;;;;;;5156508;27;20503;-22
2023/09/19 06:04:00;;;;;;;11.13;2.97;;;12.70;99.90;;;;;;5156772;27;20373;-23
2023/09/19 06:06:26;;;;;;;12.57;2.33;;;12.70;99.90;;;;;;5156379;27;20494;-22
2023/09/19 06:08:51;;;;;;;13.63;2.28;;;12.80;99.90;;;;;;5156066;27;20130;-22
2023/09/19 06:11:20;;;;;;;11.98;2.15;;;12.80;99.90;;;;;;5156631;27;20461;-23
2023/09/19 06:13:47;;;;;;;9.25;1.58;;;12.90;99.90;;;;;;5156846;27;20038;-23
2023/09/19 06:16:13;;;;;;;13.48;1.77;;;12.90;99.90;;;;;;5156225;27;20047;-22
2023/09/19 06:18:39;;;;;;;9.60;2.00;;;12.90;99.90;;;;;;5157029;27;20387;-23
2023/09/19 06:21:05;;;;;;;12.32;2.67;;;12.90;99.90;;;;;;5156195;27;20080;-23
2023/09/19 06:23:31;;;;;;;8.77;1.58;;;12.90;99.90;;;;;;5156114;27;20102;-23
2023/09/19 06:25:57;;;;;;;8.80;2.22;;;12.90;99.90;;;;;;5156052;27;20035;-23
2023/09/19 06:28:24;;;;;;;7.75;2.08;;;12.90;99.90;;;;;;5156652;27;20043;-23
2023/09/19 06:30:50;;;;;;;12.85;2.33;;;12.90;99.90;;;;;;5156341;27;20055;-23
2023/09/19 06:33:17;;;;;;;13.82;2.60;;;12.90;99.90;;;;;;5155993;27;20047;-23
2023/09/19 06:35:44;;;;;;;15.27;2.30;;;13.00;99.90;;;;;;5156522;27;20129;-23
2023/09/19 06:38:12;;;;;;;12.63;1.92;;;13.00;99.90;;;;;;5155205;27;20043;-23
2023/09/19 06:40:39;;;;;;;11.88;1.70;;;13.10;99.90;;;;;;5137758;27;20043;-23
2023/09/19 06:43:05;;;;;;;10.93;2.45;;;13.20;99.90;;;;;;5137478;27;20468;-23
2023/09/19 06:45:31;;;;;;;10.38;1.95;;;13.20;99.90;;;;;;5154618;27;20038;-23
2023/09/19 06:47:57;;;;;;;9.65;1.63;;;13.20;99.90;;;;;;5155477;27;20448;-23
2023/09/19 06:50:24;;;;;;;8.80;1.85;;;13.30;99.90;;;;;;5155681;27;20113;-23
2023/09/19 06:52:51;;;;;;;12.80;3.70;;;13.40;99.90;;;;;;5155529;27;20050;-23
2023/09/19 06:55:23;;;;;;;10.00;1.42;;;13.50;99.90;;;;;;5155663;27;20444;-23
2023/09/19 06:57:49;;;;;;;9.48;1.80;;;13.60;99.90;;;;;;5155476;27;20126;-23
2023/09/19 07:00:18;;;;;;;10.90;2.20;;;13.70;99.90;;;;;;5156411;27;20101;-23
2023/09/19 07:02:54;;;;;;;9.13;1.77;;;13.80;99.90;;;;;;5156140;27;20042;-23
2023/09/19 07:05:21;;;;;;;4.40;1.38;;;13.90;99.90;;;;;;5156337;27;20043;-23
2023/09/19 07:07:47;;;;;;;11.40;1.65;;;14.00;99.90;;;;;;5155475;27;20046;-23
2023/09/19 07:10:14;;;;;;;13.57;2.42;;;14.00;99.90;;;;;;5156092;27;20061;-23
2023/09/19 07:12:41;;;;;;;10.77;1.98;;;14.00;99.90;;;;;;5155414;27;20050;-23
2023/09/19 07:15:07;;;;;;;10.32;2.10;;;14.00;99.90;;;;;;5155933;27;20381;-23
2023/09/19 07:17:33;;;;;;;10.68;2.05;;;14.10;99.90;;;;;;5156070;27;20046;-23
2023/09/19 07:19:59;;;;;;;17.50;2.55;;;14.10;99.90;;;;;;5156187;27;20047;-23
2023/09/19 07:22:28;;;;;;;10.25;2.75;;;14.20;99.90;;;;;;5155293;27;20043;-24
2023/09/19 07:24:54;;;;;;;10.63;2.28;;;14.20;99.90;;;;;;5155813;27;20433;-23
2023/09/19 07:27:20;;;;;;;9.02;2.30;;;14.30;99.90;;;;;;5155328;27;20481;-23
2023/09/19 07:29:46;;;;;;;9.82;2.33;;;14.30;99.90;;;;;;5155742;27;20046;-23
2023/09/19 07:32:11;;;;;;;10.50;1.95;;;14.40;99.90;;;;;;5154490;27;20043;-23
2023/09/19 07:34:40;;;;;;;9.85;2.22;;;14.40;99.90;;;;;;5155762;27;20046;-23
2023/09/19 07:37:06;;;;;;;9.02;2.10;;;14.40;99.90;;;;;;5155095;27;20086;-24
2023/09/19 07:39:32;;;;;;;9.45;1.92;;;14.40;99.90;;;;;;5154201;27;20584;-24
2023/09/19 07:41:58;;;;;;;11.13;2.10;;;14.40;99.90;;;;;;5155039;27;20468;-23
2023/09/19 07:44:25;;;;;;;9.35;1.55;;;14.50;99.90;;;;;;5155139;27;20043;-24
2023/09/19 07:46:52;;;;;;;10.27;1.70;;;14.60;99.90;;;;;;5155025;27;20131;-24
2023/09/19 07:49:18;;;;;;;18.90;2.40;;;14.70;99.90;;;;;;5155228;27;20058;-24
2023/09/19 07:51:47;;;;;;;11.73;1.98;;;14.80;99.90;;;;;;5154995;27;20047;-24
2023/09/19 07:54:14;;;;;;;6.30;2.10;;;14.80;99.90;;;;;;5154974;27;20494;-23
2023/09/19 07:56:40;;;;;;;8.35;2.22;;;14.80;99.90;;;;;;5154942;27;20050;-24
2023/09/19 07:59:06;;;;;;;11.85;2.50;;;14.80;99.90;;;;;;5156243;27;20065;-24
2023/09/19 08:01:35;;;;;;;6.45;1.60;;;14.80;99.90;;;;;;5158868;27;20549;-23
2023/09/19 08:04:03;;;;;;;12.60;2.17;;;14.80;99.90;;;;;;5158951;27;20562;-24
2023/09/19 08:06:30;;;;;;;21.73;3.17;;;14.70;99.90;;;;;;5157873;27;20057;-24
2023/09/19 08:08:57;;;;;;;9.45;1.80;;;14.60;99.90;;;;;;5158393;27;20515;-23
2023/09/19 08:11:24;;;;;;;8.82;1.73;;;14.60;99.90;;;;;;5158745;27;20050;-23
2023/09/19 08:13:50;;;;;;;13.65;2.20;;;14.70;99.90;;;;;;5159233;27;20365;-24
2023/09/19 08:16:17;;;;;;;8.52;1.92;;;14.70;99.90;;;;;;5158875;27;20127;-25
2023/09/19 08:18:47;;;;;;;9.18;1.70;;;14.80;99.90;;;;;;5158594;27;20057;-24
2023/09/19 08:21:14;;;;;;;7.88;1.45;;;14.90;99.90;;;;;;5140510;27;20537;-24
2023/09/19 08:23:40;;;;;;;14.05;2.97;;;14.90;99.90;;;;;;5159126;27;20059;-24
2023/09/19 08:26:07;;;;;;;9.68;1.58;;;15.10;99.90;;;;;;5122924;27;20046;-24
2023/09/19 08:28:34;;;;;;;9.60;2.10;;;15.40;99.90;;;;;;5158420;27;20122;-24
2023/09/19 08:31:04;;;;;;;12.13;2.00;;;15.60;99.90;;;;;;5158342;27;20053;-24
2023/09/19 08:33:32;;;;;;;8.05;2.03;;;15.60;99.90;;;;;;5158359;27;20080;-24
2023/09/19 08:35:58;;;;;;;10.60;2.78;;;15.60;99.90;;;;;;5158259;27;20468;-24
2023/09/19 08:38:23;;;;;;;9.85;1.90;;;15.50;99.90;;;;;;5157238;27;20139;-24
2023/09/19 08:40:49;;;;;;;9.73;2.38;;;15.70;99.90;;;;;;5156966;27;20099;-25
2023/09/19 08:43:15;;;;;;;8.45;2.03;;;15.70;99.90;;;;;;5156629;27;20066;-24
2023/09/19 08:45:41;;;;;;;10.75;1.98;;;15.80;99.90;;;;;;5158145;27;20068;-24
2023/09/19 08:48:28;;;;;;;11.93;1.85;;;16.00;99.90;;;;;;5158577;27;20046;-25
2023/09/19 08:51:06;;;;;;;10.02;1.95;;;16.20;99.90;;;;;;5157887;27;20119;-25
2023/09/19 08:53:46;;;;;;;11.25;2.65;;;16.30;96.30;;;;;;5157974;27;20098;-24
2023/09/19 08:56:13;;;;;;;8.27;1.90;;;16.40;99.90;;;;;;5157851;27;20089;-25
2023/09/19 08:58:54;;;;;;;8.57;1.65;;;16.40;99.90;;;;;;5157773;27;20046;-25
2023/09/19 09:01:24;;;;;;;5.70;1.92;;;16.40;59.40;;;;;;5158425;27;20053;-25
2023/09/19 09:03:52;;;;;;;6.10;2.35;;;16.50;1.00;;;;;;5156623;27;20046;-25
2023/09/19 09:06:20;;;;;;;6.53;1.65;;;16.50;1.00;;;;;;5157562;27;20097;-25
2023/09/19 09:08:47;;;;;;;10.57;2.20;;;16.80;1.00;;;;;;5156173;27;20058;-24
2023/09/19 09:11:14;;;;;;;8.98;2.17;;;16.90;99.90;;;;;;5156683;27;20107;-25
2023/09/19 09:13:41;;;;;;;9.48;2.22;;;17.00;99.90;;;;;;5157199;27;20392;-25
2023/09/19 09:16:08;;;;;;;7.93;1.90;;;17.10;99.90;;;;;;5157408;27;20422;-26
2023/09/19 09:18:36;;;;;;;9.55;2.28;;;17.00;99.90;;;;;;5158011;27;20176;-25
2023/09/19 09:21:04;;;;;;;12.65;2.53;;;17.00;99.90;;;;;;5157376;27;20125;-25
2023/09/19 09:23:31;;;;;;;13.13;2.88;;;17.10;99.90;;;;;;5156081;27;20501;-25
2023/09/19 09:25:59;;;;;;;9.07;2.33;;;17.10;99.90;;;;;;5157138;27;20043;-25
2023/09/19 09:28:27;;;;;;;10.73;2.10;;;16.90;99.90;;;;;;5157252;27;20042;-25
2023/09/19 09:30:54;;;;;;;13.65;2.40;;;17.00;99.90;;;;;;5157477;27;20043;-25
2023/09/19 09:33:21;;;;;;;16.23;3.25;;;17.30;1.00;;;;;;5157069;27;20043;-25
2023/09/19 09:35:56;;;;;;;9.80;1.75;;;17.60;99.90;;;;;;5157052;27;20053;-25
2023/09/19 09:38:33;;;;;;;11.48;3.00;;;17.60;99.90;;;;;;5157083;27;20042;-26
2023/09/19 09:41:06;;;;;;;10.40;2.05;;;17.90;99.90;;;;;;5157856;27;20411;-25
2023/09/19 09:43:36;;;;;;;14.13;2.70;;;17.80;57.40;;;;;;5156298;27;20103;-25
2023/09/19 09:46:58;;;;;;;9.55;2.50;;;17.80;99.90;;;;;;5156778;27;20047;-25
2023/09/19 09:51:57;;;;;;;12.73;2.45;;;17.80;99.90;;;;;;5156797;27;20333;-26
2023/09/19 09:54:25;;;;;;;10.57;2.30;;;17.60;99.90;;;;;;5156642;27;20082;-25
2023/09/19 09:57:00;;;;;;;13.07;2.55;;;17.40;99.90;;;;;;5156615;27;20031;-25
2023/09/19 09:59:58;;;;;;;12.35;2.83;;;17.30;99.90;;;;;;5138663;27;20130;-26
2023/09/19 10:02:40;;;;;;;10.93;3.08;;;16.90;99.90;;;;;;5156661;27;20043;-25
2023/09/19 10:05:43;;;;;;;10.98;2.17;;;16.90;99.90;;;;;;5155430;27;20051;-25
2023/09/19 10:08:19;;;;;;;9.50;2.42;;;16.80;1.00;;;;;;5143693;27;20066;-25
2023/09/19 10:13:23;;;;;;;8.27;2.28;;;17.40;1.00;;;;;;5156376;27;20133;-25
2023/09/19 10:15:54;;;;;;;8.55;2.25;;;17.30;99.90;;;;;;5156336;27;20043;-25
2023/09/19 10:18:25;;;;;;;14.13;2.58;;;17.20;99.90;;;;;;5156825;27;20489;-27
2023/09/19 10:20:56;;;;;;;13.25;2.40;;;17.40;40.30;;;;;;5156702;27;20047;-25
2023/09/19 10:23:23;;;;;;;15.57;3.72;;;17.40;1.00;;;;;;5157059;27;20121;-26
2023/09/19 10:25:49;;;;;;;10.45;2.28;;;17.30;1.00;;;;;;5156109;27;20053;-26
2023/09/19 10:28:21;;;;;;;7.93;1.70;;;17.30;13.80;;;;;;5156337;27;20039;-26
2023/09/19 10:30:49;;;;;;;15.25;3.00;;;17.20;99.90;;;;;;5156091;27;20049;-26
2023/09/19 10:33:17;;;;;;;13.68;2.80;;;17.40;1.00;;;;;;5156048;27;20042;-26
2023/09/19 10:35:44;;;;;;;14.38;4.28;;;17.70;99.90;;;;;;5154671;27;20041;-27
2023/09/19 10:38:12;;;;;;;8.73;1.92;;;17.80;97.60;;;;;;5155841;27;20043;-26
2023/09/19 10:40:45;;;;;;;12.75;2.25;;;18.30;99.90;;;;;;5155823;27;20106;-26
2023/09/19 10:43:20;;;;;;;9.52;3.22;;;18.30;99.90;;;;;;5155861;27;20479;-25
2023/09/19 10:45:52;;;;;;;11.70;2.58;;;18.20;99.90;;;;;;5155898;27;20039;-26
2023/09/19 10:48:19;;;;;;;12.00;2.10;;;18.20;1.00;;;;;;5155813;27;20046;-26
2023/09/19 10:51:19;;;;;;;16.00;2.55;;;18.10;99.90;;;;;;5155674;27;20050;-26
2023/09/19 10:53:50;;;;;;;8.07;3.13;;;17.90;1.00;;;;;;5144205;27;20086;-26
2023/09/19 10:56:32;;;;;;;13.35;2.70;;;17.70;99.90;;;;;;5155923;27;20050;-26
2023/09/19 10:59:15;;;;;;;11.38;2.65;;;17.70;1.00;;;;;;5156441;27;20047;-26
2023/09/19 11:01:51;;;;;;;9.90;3.38;;;18.00;1.00;;;;;;5155558;27;20047;-26
2023/09/19 11:04:36;;;;;;;13.27;2.80;;;17.90;1.00;;;;;;5155558;27;20039;-26
2023/09/19 11:07:11;;;;;;;16.60;2.85;;;17.70;91.10;;;;;;5156321;27;20115;-27
2023/09/19 11:09:46;;;;;;;12.30;2.72;;;17.40;99.90;;;;;;5155904;27;20056;-25
2023/09/19 11:12:35;;;;;;;10.57;2.85;;;17.10;99.90;;;;;;5155399;27;20085;-26
2023/09/19 11:15:05;;;;;;;11.60;3.05;;;17.00;1.00;;;;;;5155571;27;20053;-26
2023/09/19 11:17:41;;;;;;;12.40;2.63;;;17.00;1.00;;;;;;5156417;27;20043;-26
2023/09/19 11:22:53;;;;;;;10.95;2.20;;;17.10;99.90;;;;;;5154921;27;20055;-26
2023/09/19 11:25:29;;;;;;;10.10;1.92;;;17.00;1.00;;;;;;5155367;27;20047;-26
2023/09/19 11:28:08;;;;;;;10.02;2.63;;;16.90;1.00;;;;;;5154603;27;20050;-26
2023/09/19 11:30:44;;;;;;;13.35;2.70;;;16.90;1.00;;;;;;5155276;27;20078;-26
2023/09/19 11:33:46;;;;;;;10.68;3.67;;;16.90;43.60;;;;;;5156000;27;20043;-26
2023/09/19 11:36:19;;;;;;;15.27;3.60;;;16.90;7.10;;;;;;5159784;27;20043;-26
2023/09/19 11:38:45;;;;;;;13.82;3.58;;;17.20;1.00;;;;;;5141459;27;20062;-26
2023/09/19 11:41:22;;;;;;;12.02;2.40;;;17.30;1.00;;;;;;5159910;27;20046;-26
2023/09/19 11:44:04;;;;;;;8.93;2.20;;;17.30;99.90;;;;;;5158972;27;20408;-26
2023/09/19 11:46:31;;;;;;;12.93;2.97;;;17.30;99.90;;;;;;5158112;27;20499;-26
2023/09/19 11:49:15;;;;;;;10.90;2.40;;;17.50;1.00;;;;;;5159195;27;20038;-26
2023/09/19 11:51:45;;;;;;;12.13;2.53;;;17.60;99.90;;;;;;5160054;27;20136;-26
2023/09/19 11:54:33;;;;;;;10.02;2.33;;;17.60;99.90;;;;;;5159727;27;20051;-26
2023/09/19 11:57:00;;;;;;;9.30;2.28;;;17.40;99.90;;;;;;5157149;27;20051;-26
2023/09/19 11:59:30;;;;;;;10.25;2.13;;;17.30;99.90;;;;;;5159040;27;20086;-26
2023/09/19 12:02:05;;;;;;;12.13;1.83;;;17.40;99.90;;;;;;5159782;27;20046;-26
2023/09/19 12:04:38;;;;;;;15.18;2.90;;;17.40;99.90;;;;;;5158507;27;20497;-26
2023/09/19 12:07:05;;;;;;;;;;;17.30;99.90;;;;;;5159248;27;20392;-26
2023/09/19 12:09:31;;;;;;;10.45;2.15;;;17.30;99.90;;;;;;5159181;27;19919;-26
2023/09/19 12:11:59;;;;;;;11.13;2.53;;;17.40;1.00;;;;;;5158446;27;20574;-26
2023/09/19 12:14:27;;;;;;;10.15;2.63;;;17.50;1.00;;;;;;5157512;27;20488;-26
2023/09/19 12:16:55;;;;;;;13.68;3.20;;;17.40;1.00;;;;;;5158316;27;20564;-26
2023/09/19 12:19:22;;;;;;;12.00;2.90;;;17.40;1.00;;;;;;5158585;27;20042;-27
2023/09/19 12:22:05;;;;;;;14.05;3.10;;;17.40;62.10;;;;;;5159142;27;20046;-26
2023/09/19 12:24:34;;;;;;;13.23;2.90;;;17.10;99.90;;;;;;5158462;27;20134;-25
2023/09/19 12:27:05;;;;;;;10.02;2.10;;;16.80;99.90;;;;;;5158742;27;20373;-25
2023/09/19 12:29:44;;;;;;;14.23;2.17;;;16.60;55.10;;;;;;5158943;27;20074;-23
2023/09/19 12:32:12;;;;;;;7.07;1.98;;;16.00;99.90;;;;;;5159265;27;20050;-22
2023/09/19 12:34:45;;;;;;;6.90;1.88;;;15.50;99.90;;;;;;5157290;27;20511;-22
2023/09/19 12:37:12;;;;;;;;;;;15.30;99.90;;;;;;5158189;27;20049;-22
2023/09/19 12:39:41;;;;;;;9.07;2.05;;;15.60;99.90;;;;;;5158880;27;20017;-23
2023/09/19 12:42:09;;;;;;;16.77;2.75;;;15.80;99.90;;;;;;5158150;27;20499;-23
2023/09/19 12:44:43;;;;;;;8.43;1.80;;;16.00;99.90;;;;;;5157095;27;20042;-22
2023/09/19 12:47:19;;;;;;;12.50;2.78;;;16.30;99.90;;;;;;5139812;27;20099;-23
2023/09/19 12:50:08;;;;;;;9.95;1.98;;;16.60;99.90;;;;;;5157860;27;20376;-24
2023/09/19 12:52:40;;;;;;;6.45;1.45;;;16.90;9.90;;;;;;5156753;27;20046;-24
2023/09/19 12:55:10;;;;;;;9.88;1.98;;;17.00;91.70;;;;;;5157933;27;20066;-24
2023/09/19 12:57:39;;;;;;;15.70;2.53;;;17.10;38.10;;;;;;5157017;27;20396;-25
2023/09/19 13:00:05;;;;;;;11.15;2.42;;;17.10;1.00;;;;;;5157473;27;20500;-24
2023/09/19 13:02:32;;;;;;;6.32;1.70;;;17.10;1.00;;;;;;5156652;27;20058;-25
2023/09/19 13:05:04;;;;;;;7.90;1.30;;;17.00;99.90;;;;;;5158315;27;20046;-24